Time;durP1;ratioP1;P1;durP2;ratioP2;P2;SDS_P1;SDS_P2;PMS_P1;PMS_P2;Temp;Humidity;BMP_temperature;BMP_pressure;BME280_temperature;BME280_humidity;BME280_pressure;Samples;Min_cycle;Max_cycle;Signal;HPM_P1;HPM_P2
2023/07/03 00:00:18;;;;;;;6.27;3.03;;;;;23.80;99936.00;;;;2068639;28;20252;-69
2023/07/03 00:01:18;;;;;;;8.70;3.83;;;;;23.80;99950.00;;;;2052941;28;20218;-69
2023/07/03 00:02:18;;;;;;;6.70;3.37;;;;;23.80;99942.00;;;;2043934;28;20239;-69
2023/07/03 00:03:19;;;;;;;6.47;2.80;;;;;23.80;99944.00;;;;2067760;28;20214;-69
2023/07/03 00:04:19;;;;;;;8.03;3.60;;;;;23.80;99947.00;;;;2061051;28;20218;-69
2023/07/03 00:05:20;;;;;;;7.73;3.07;;;;;23.80;99945.00;;;;2056008;28;20289;-69
2023/07/03 00:06:20;;;;;;;6.20;2.90;;;;;23.80;99941.00;;;;2059678;28;20241;-69
2023/07/03 00:07:21;;;;;;;4.90;3.27;;;;;23.80;99942.00;;;;2048053;28;20219;-69
2023/07/03 00:08:21;;;;;;;7.40;2.90;;;;;23.80;99939.00;;;;2067498;28;20230;-69
2023/07/03 00:09:21;;;;;;;8.60;3.30;;;;;23.80;99938.00;;;;2062988;28;20610;-69
2023/07/03 00:10:22;;;;;;;6.20;2.70;;;;;23.80;99941.00;;;;2056074;28;20710;-69
2023/07/03 00:11:22;;;;;;;7.00;3.63;;;;;23.80;99940.00;;;;2064555;28;20700;-69
2023/07/03 00:12:22;;;;;;;6.37;3.30;;;;;23.80;99945.00;;;;2056190;28;20215;-69
2023/07/03 00:13:23;;;;;;;5.77;3.00;;;;;23.80;99946.00;;;;2063806;28;20215;-69
2023/07/03 00:14:23;;;;;;;9.30;3.80;;;;;23.80;99942.00;;;;2062381;28;20218;-69
2023/07/03 00:15:24;;;;;;;4.83;3.50;;;;;23.80;99940.00;;;;2062331;28;20353;-69
2023/07/03 00:16:24;;;;;;;6.27;2.83;;;;;23.80;99934.00;;;;2061081;28;20204;-69
2023/07/03 00:17:24;;;;;;;5.27;2.90;;;;;23.80;99949.00;;;;2047080;28;20239;-69
2023/07/03 00:18:25;;;;;;;8.77;3.27;;;;;23.80;99953.00;;;;2059501;28;20210;-69
2023/07/03 00:19:30;;;;;;;5.30;3.07;;;;;23.80;99936.00;;;;2063607;28;20219;-69
2023/07/03 00:20:30;;;;;;;5.10;3.03;;;;;23.80;99942.00;;;;2059670;28;20219;-69
2023/07/03 00:21:30;;;;;;;6.90;3.17;;;;;23.80;99947.00;;;;2063412;28;20672;-69
2023/07/03 00:22:31;;;;;;;8.07;2.93;;;;;23.80;99950.00;;;;2050557;28;20235;-69
2023/07/03 00:23:31;;;;;;;7.73;3.20;;;;;23.80;99951.00;;;;2062113;28;20219;-69
2023/07/03 00:24:31;;;;;;;7.87;3.10;;;;;23.80;99942.00;;;;2064173;28;20959;-69
2023/07/03 00:25:32;;;;;;;7.37;3.30;;;;;23.80;99952.00;;;;2062241;28;20243;-69
2023/07/03 00:26:32;;;;;;;7.57;3.10;;;;;23.80;99941.00;;;;2063449;28;20231;-69
2023/07/03 00:27:32;;;;;;;6.30;2.97;;;;;23.80;99950.00;;;;2054289;28;20238;-69
2023/07/03 00:28:33;;;;;;;5.47;3.03;;;;;23.80;99946.00;;;;2065272;28;20231;-69
2023/07/03 00:29:33;;;;;;;6.90;2.90;;;;;23.80;99921.00;;;;2065406;28;20242;-69
2023/07/03 00:30:34;;;;;;;7.73;2.93;;;;;23.70;99949.00;;;;2053980;28;20215;-69
2023/07/03 00:31:34;;;;;;;6.30;2.87;;;;;23.80;99943.00;;;;2055069;28;20802;-69
2023/07/03 00:32:35;;;;;;;8.13;3.00;;;;;23.80;99940.00;;;;2047662;28;20243;-69
2023/07/03 00:33:35;;;;;;;5.60;2.73;;;;;23.80;99944.00;;;;2063162;28;20221;-69
2023/07/03 00:34:36;;;;;;;8.60;3.23;;;;;23.80;99945.00;;;;2063865;28;20215;-69
2023/07/03 00:35:36;;;;;;;7.47;2.97;;;;;23.80;99948.00;;;;2059568;28;20222;-69
2023/07/03 00:36:37;;;;;;;7.90;2.90;;;;;23.80;99949.00;;;;2059467;28;20214;-69
2023/07/03 00:37:37;;;;;;;7.20;2.93;;;;;23.80;99945.00;;;;2041002;28;20273;-69
2023/07/03 00:38:37;;;;;;;5.03;2.87;;;;;23.80;99953.00;;;;2048195;28;20216;-69
2023/07/03 00:39:38;;;;;;;11.40;3.63;;;;;23.80;99943.00;;;;2058751;28;20219;-69
2023/07/03 00:40:38;;;;;;;5.77;2.80;;;;;23.70;99944.00;;;;2061658;28;20667;-69
2023/07/03 00:41:38;;;;;;;8.80;2.90;;;;;23.70;99943.00;;;;2064290;28;20280;-69
2023/07/03 00:42:39;;;;;;;6.60;2.97;;;;;23.70;99942.00;;;;2052470;28;20235;-69
2023/07/03 00:43:40;;;;;;;8.13;3.13;;;;;23.70;99944.00;;;;2061140;28;20215;-69
2023/07/03 00:44:40;;;;;;;4.90;2.70;;;;;23.70;99942.00;;;;2062224;28;20265;-69
2023/07/03 00:45:41;;;;;;;8.00;3.23;;;;;23.70;99946.00;;;;2062965;28;20214;-69
2023/07/03 00:46:47;;;;;;;7.60;3.00;;;;;23.70;99940.00;;;;2054259;28;20270;-69
2023/07/03 00:47:47;;;;;;;7.50;3.58;;;;;23.80;99945.00;;;;2045350;28;20220;-69
2023/07/03 00:48:47;;;;;;;6.80;3.20;;;;;23.70;99954.00;;;;2053891;28;20226;-69
2023/07/03 00:49:48;;;;;;;7.30;2.90;;;;;23.70;99951.00;;;;2065429;28;20229;-69
2023/07/03 00:50:48;;;;;;;4.83;3.20;;;;;23.70;99948.00;;;;2060966;28;20222;-69
2023/07/03 00:51:51;;;;;;;7.33;2.90;;;;;23.70;99923.00;;;;2062960;28;20232;-69
2023/07/03 00:52:55;;;;;;;9.82;3.22;;;;;23.70;99946.00;;;;2037123;28;20212;-69
2023/07/03 00:53:55;;;;;;;5.28;2.97;;;;;23.70;99946.00;;;;2047036;28;20589;-69
2023/07/03 00:54:57;;;;;;;5.87;3.60;;;;;23.70;99943.00;;;;2062980;28;20215;-69
2023/07/03 00:55:58;;;;;;;4.63;2.67;;;;;23.70;99944.00;;;;2055703;28;20302;-69
2023/07/03 00:56:58;;;;;;;7.53;3.10;;;;;23.70;99939.00;;;;2039212;28;20271;-69
2023/07/03 00:57:58;;;;;;;6.00;3.37;;;;;23.70;99938.00;;;;2059524;28;21148;-69
2023/07/03 00:58:59;;;;;;;8.50;2.40;;;;;23.70;99946.00;;;;2056695;28;20801;-69
2023/07/03 00:59:59;;;;;;;6.60;2.73;;;;;23.70;99945.00;;;;2057196;28;20680;-69
2023/07/03 01:01:23;;;;;;;6.40;2.90;;;;;23.70;99946.00;;;;2062794;28;20626;-68
2023/07/03 01:02:46;;;;;;;7.28;3.00;;;;;23.70;99938.00;;;;2052581;28;20269;-68
2023/07/03 01:03:50;;;;;;;7.38;2.65;;;;;23.70;99934.00;;;;2047112;28;20282;-68
2023/07/03 01:05:14;;;;;;;6.80;2.85;;;;;23.70;99920.00;;;;2046101;28;20807;-69
2023/07/03 01:06:19;;;;;;;7.55;3.00;;;;;23.70;99942.00;;;;2055838;28;20246;-69
2023/07/03 01:07:22;;;;;;;4.70;2.83;;;;;23.70;99942.00;;;;2037590;28;20359;-69
2023/07/03 01:08:22;;;;;;;6.70;3.15;;;;;23.70;99932.00;;;;2043304;28;20589;-69
2023/07/03 01:09:24;;;;;;;6.83;2.60;;;;;23.70;99916.00;;;;2038397;29;20220;-69
2023/07/03 01:10:24;;;;;;;8.43;3.20;;;;;23.70;99930.00;;;;2054844;28;20244;-69
2023/07/03 01:11:25;;;;;;;6.20;2.60;;;;;23.70;99933.00;;;;2056517;28;20210;-69
2023/07/03 01:12:27;;;;;;;5.97;2.67;;;;;23.70;99932.00;;;;2049362;28;20222;-69
2023/07/03 01:13:27;;;;;;;8.50;3.15;;;;;23.70;99927.00;;;;2041567;28;20212;-69
2023/07/03 01:14:28;;;;;;;6.90;3.00;;;;;23.70;99912.00;;;;2029610;29;20214;-69
2023/07/03 01:15:30;;;;;;;5.90;3.10;;;;;23.70;99927.00;;;;2046591;28;20219;-69
2023/07/03 01:16:30;;;;;;;6.93;3.00;;;;;23.70;99931.00;;;;2052705;28;20223;-68
2023/07/03 01:17:31;;;;;;;7.73;3.33;;;;;23.60;99926.00;;;;2041490;28;20288;-69
2023/07/03 01:18:31;;;;;;;6.30;3.03;;;;;23.70;99941.00;;;;2041916;29;20231;-69
2023/07/03 01:19:31;;;;;;;6.83;2.80;;;;;23.70;99920.00;;;;2038123;29;20216;-69
2023/07/03 01:20:51;;;;;;;6.37;2.43;;;;;23.70;99935.00;;;;2038489;29;20316;-69
2023/07/03 01:21:55;;;;;;;6.95;2.80;;;;;23.70;99942.00;;;;2044072;28;20598;-69
2023/07/03 01:23:13;;;;;;;7.28;3.00;;;;;23.70;99944.00;;;;2047157;28;20234;-68
2023/07/03 01:24:19;;;;;;;6.05;2.60;;;;;23.70;99914.00;;;;2050184;28;20231;-68
2023/07/03 01:25:20;;;;;;;7.82;3.00;;;;;23.70;99944.00;;;;2046399;28;20345;-68
2023/07/03 01:26:20;;;;;;;9.30;3.20;;;;;23.60;99936.00;;;;2046644;28;20837;-69
2023/07/03 01:27:22;;;;;;;7.43;2.87;;;;;23.60;99912.00;;;;2035917;28;20763;-68
2023/07/03 01:28:23;;;;;;;6.97;3.00;;;;;23.60;99938.00;;;;2041007;28;20660;-68
2023/07/03 01:29:23;;;;;;;5.40;2.83;;;;;23.60;99933.00;;;;2047149;28;20220;-68
2023/07/03 01:30:23;;;;;;;5.70;2.50;;;;;23.60;99938.00;;;;2052919;28;20212;-68
2023/07/03 01:31:24;;;;;;;8.70;3.00;;;;;23.70;99935.00;;;;2061767;28;20246;-68
2023/07/03 01:32:27;;;;;;;6.37;2.60;;;;;23.60;99931.00;;;;2039697;28;20259;-68
2023/07/03 01:33:30;;;;;;;6.85;3.05;;;;;23.60;99937.00;;;;2040961;28;20240;-68
2023/07/03 01:34:31;;;;;;;4.65;2.95;;;;;23.60;99932.00;;;;2053355;28;20213;-68
2023/07/03 01:35:31;;;;;;;6.53;2.80;;;;;23.60;99934.00;;;;2048144;28;20232;-68
2023/07/03 01:36:32;;;;;;;6.03;2.67;;;;;23.60;99928.00;;;;2040201;29;20339;-68
2023/07/03 01:37:33;;;;;;;6.33;2.70;;;;;23.60;99941.00;;;;2041139;28;20256;-68
2023/07/03 01:38:33;;;;;;;6.90;2.80;;;;;23.60;99936.00;;;;2046930;28;20260;-68
2023/07/03 01:39:33;;;;;;;6.57;2.93;;;;;23.60;99932.00;;;;2046753;28;20463;-68
2023/07/03 01:40:34;;;;;;;7.77;3.03;;;;;23.60;99923.00;;;;2050404;28;20719;-68
2023/07/03 01:41:34;;;;;;;6.17;2.80;;;;;23.60;99928.00;;;;2057760;28;20286;-68
2023/07/03 01:42:37;;;;;;;5.90;2.73;;;;;23.60;99928.00;;;;2041101;28;20721;-68
2023/07/03 01:43:38;;;;;;;7.32;2.75;;;;;23.60;99924.00;;;;2043098;28;20216;-68
2023/07/03 01:44:38;;;;;;;8.43;2.80;;;;;23.60;99932.00;;;;2042043;28;20216;-68
2023/07/03 01:45:45;;;;;;;6.50;3.20;;;;;23.60;99923.00;;;;2050262;28;20310;-68
2023/07/03 01:46:45;;;;;;;7.25;3.22;;;;;23.60;99925.00;;;;2055719;28;20211;-68
2023/07/03 01:47:46;;;;;;;4.47;2.43;;;;;23.60;99923.00;;;;2048127;28;20572;-68
2023/07/03 01:48:46;;;;;;;8.50;3.43;;;;;23.60;99932.00;;;;2060316;28;20704;-68
2023/07/03 01:49:47;;;;;;;9.60;3.43;;;;;23.60;99926.00;;;;2059542;28;20733;-68
2023/07/03 01:50:48;;;;;;;6.07;2.92;;;;;23.60;99931.00;;;;2057697;28;20224;-68
2023/07/03 01:52:19;;;;;;;6.40;3.10;;;;;23.60;99926.00;;;;2056185;28;20250;-68
2023/07/03 01:53:24;;;;;;;7.30;3.25;;;;;23.60;99926.00;;;;2058633;28;20221;-68
2023/07/03 01:54:34;;;;;;;6.00;2.75;;;;;23.60;99925.00;;;;2050732;28;20207;-68
2023/07/03 01:55:39;;;;;;;9.43;3.42;;;;;23.60;99901.00;;;;2041095;29;20216;-68
2023/07/03 01:56:41;;;;;;;7.05;2.35;;;;;23.60;99924.00;;;;2039839;28;20328;-68
2023/07/03 01:58:03;;;;;;;6.45;2.80;;;;;23.60;99920.00;;;;2036473;28;20595;-68
2023/07/03 01:59:07;;;;;;;4.85;2.45;;;;;23.60;99890.00;;;;2057889;28;20229;-68
2023/07/03 02:00:10;;;;;;;5.25;2.92;;;;;23.50;99926.00;;;;2063669;28;20301;-68
2023/07/03 02:01:15;;;;;;;6.63;2.92;;;;;23.60;99925.00;;;;2054805;28;20219;-68
2023/07/03 02:02:17;;;;;;;6.05;2.70;;;;;23.60;99933.00;;;;2038201;28;21074;-68
2023/07/03 02:03:22;;;;;;;6.18;3.03;;;;;23.50;99924.00;;;;2030464;29;20324;-68
2023/07/03 02:04:24;;;;;;;5.80;2.85;;;;;23.50;99923.00;;;;2038633;28;20655;-68
2023/07/03 02:05:27;;;;;;;7.25;2.83;;;;;23.50;99918.00;;;;2045967;28;20224;-68
2023/07/03 02:06:33;;;;;;;6.95;3.05;;;;;23.50;99929.00;;;;2042981;28;20216;-68
2023/07/03 02:07:34;;;;;;;4.70;2.35;;;;;23.50;99920.00;;;;2033931;28;20727;-68
2023/07/03 02:08:35;;;;;;;7.07;2.88;;;;;23.50;99919.00;;;;2047413;28;20228;-68
2023/07/03 02:09:36;;;;;;;6.87;2.87;;;;;23.50;99889.00;;;;2042907;29;20236;-68
2023/07/03 02:10:36;;;;;;;6.07;2.80;;;;;23.50;99912.00;;;;2048412;28;20216;-68
2023/07/03 02:11:36;;;;;;;6.27;2.97;;;;;23.50;99916.00;;;;2059973;28;20220;-68
2023/07/03 02:12:37;;;;;;;4.37;2.70;;;;;23.50;99916.00;;;;2043489;28;20215;-68
2023/07/03 02:13:37;;;;;;;6.67;3.03;;;;;23.50;99918.00;;;;2059626;28;20226;-68
2023/07/03 02:14:38;;;;;;;8.60;3.17;;;;;23.50;99917.00;;;;2067389;28;20658;-68
2023/07/03 02:15:38;;;;;;;7.80;3.00;;;;;23.50;99918.00;;;;2065769;28;20690;-68
2023/07/03 02:16:41;;;;;;;6.40;2.83;;;;;23.50;99916.00;;;;2064577;28;20269;-68
2023/07/03 02:17:41;;;;;;;5.18;2.50;;;;;23.50;99916.00;;;;2053936;28;20215;-68
2023/07/03 02:18:42;;;;;;;5.20;2.60;;;;;23.50;99901.00;;;;2066267;28;20214;-68
2023/07/03 02:19:43;;;;;;;6.90;3.23;;;;;23.50;99912.00;;;;2055326;28;20247;-68
2023/07/03 02:20:46;;;;;;;8.57;3.07;;;;;23.50;99917.00;;;;2048221;28;20452;-68
2023/07/03 02:21:47;;;;;;;8.50;3.30;;;;;23.50;99913.00;;;;2057304;28;20576;-68
2023/07/03 02:22:47;;;;;;;6.57;3.33;;;;;23.50;99919.00;;;;2049758;28;20241;-68
2023/07/03 02:23:47;;;;;;;8.53;3.23;;;;;23.50;99902.00;;;;2063823;28;20257;-68
2023/07/03 02:24:48;;;;;;;7.70;2.93;;;;;23.50;99919.00;;;;2065264;28;20238;-68
2023/07/03 02:25:48;;;;;;;5.60;2.70;;;;;23.50;99917.00;;;;2059217;28;20808;-68
2023/07/03 02:26:49;;;;;;;6.47;2.73;;;;;23.50;99918.00;;;;2058108;28;20278;-68
2023/07/03 02:27:50;;;;;;;7.37;3.00;;;;;23.50;99920.00;;;;2049191;28;20227;-68
2023/07/03 02:28:50;;;;;;;6.43;3.13;;;;;23.50;99909.00;;;;2067087;28;20842;-68
2023/07/03 02:29:51;;;;;;;6.27;2.90;;;;;23.50;99912.00;;;;2064660;28;20486;-68
2023/07/03 02:30:51;;;;;;;6.17;2.57;;;;;23.50;99917.00;;;;2058909;28;20231;-68
2023/07/03 02:31:51;;;;;;;7.30;3.20;;;;;23.50;99910.00;;;;2059984;28;20222;-68
2023/07/03 02:32:52;;;;;;;5.00;2.57;;;;;23.50;99909.00;;;;2049047;28;20262;-68
2023/07/03 02:33:53;;;;;;;7.90;2.63;;;;;23.50;99913.00;;;;2059440;28;20230;-68
2023/07/03 02:34:53;;;;;;;6.03;3.07;;;;;23.50;99907.00;;;;2062117;28;20226;-68
2023/07/03 02:35:53;;;;;;;7.40;2.77;;;;;23.50;99912.00;;;;2064908;28;20210;-68
2023/07/03 02:36:58;;;;;;;13.40;3.90;;;;;23.50;99921.00;;;;2060339;28;20230;-68
2023/07/03 02:37:58;;;;;;;6.20;3.20;;;;;23.50;99917.00;;;;2059077;28;20255;-68
2023/07/03 02:38:59;;;;;;;7.97;3.13;;;;;23.50;99908.00;;;;2063749;28;20218;-68
2023/07/03 02:39:59;;;;;;;7.23;2.93;;;;;23.50;99913.00;;;;2063940;28;20218;-68
2023/07/03 02:41:01;;;;;;;5.60;2.80;;;;;23.50;99907.00;;;;2060282;28;20215;-68
2023/07/03 02:42:02;;;;;;;6.30;2.70;;;;;23.50;99906.00;;;;2047621;28;20259;-69
2023/07/03 02:43:03;;;;;;;7.60;2.73;;;;;23.50;99903.00;;;;2061287;28;20273;-69
2023/07/03 02:44:03;;;;;;;5.53;2.50;;;;;23.50;99905.00;;;;2062961;28;20221;-69
2023/07/03 02:45:05;;;;;;;8.47;3.53;;;;;23.50;99902.00;;;;2068407;28;20469;-69
2023/07/03 02:46:06;;;;;;;8.40;3.20;;;;;23.50;99905.00;;;;2053667;28;20254;-69
2023/07/03 02:47:06;;;;;;;5.10;2.80;;;;;23.50;99911.00;;;;2045927;28;20219;-69
2023/07/03 02:48:07;;;;;;;7.17;3.07;;;;;23.50;99907.00;;;;2063743;28;20602;-69
2023/07/03 02:49:07;;;;;;;5.03;2.67;;;;;23.50;99906.00;;;;2056740;28;20632;-69
2023/07/03 02:50:08;;;;;;;6.63;3.00;;;;;23.50;99910.00;;;;2070207;28;20904;-69
2023/07/03 02:51:08;;;;;;;7.77;2.63;;;;;23.50;99908.00;;;;2063588;28;20314;-69
2023/07/03 02:52:09;;;;;;;4.73;2.83;;;;;23.50;99901.00;;;;2046474;28;20684;-69
2023/07/03 02:53:09;;;;;;;6.10;2.53;;;;;23.50;99900.00;;;;2061642;28;20598;-69
2023/07/03 02:54:09;;;;;;;6.03;3.00;;;;;23.50;99912.00;;;;2055125;28;20230;-69
2023/07/03 02:55:10;;;;;;;6.70;2.60;;;;;23.50;99910.00;;;;2051756;28;20207;-69
2023/07/03 02:56:10;;;;;;;8.00;3.20;;;;;23.50;99908.00;;;;2060134;28;20682;-69
2023/07/03 02:57:11;;;;;;;9.60;3.30;;;;;23.50;99913.00;;;;2029964;29;20253;-69
2023/07/03 02:58:11;;;;;;;6.97;2.90;;;;;23.50;99913.00;;;;2048815;28;20249;-69
2023/07/03 02:59:14;;;;;;;6.93;3.00;;;;;23.50;99911.00;;;;2057831;28;20595;-69
2023/07/03 03:00:14;;;;;;;7.50;3.65;;;;;23.50;99912.00;;;;2061493;28;20214;-69
2023/07/03 03:01:15;;;;;;;8.23;3.17;;;;;23.50;99910.00;;;;2062223;28;20300;-69
2023/07/03 03:02:15;;;;;;;6.53;3.10;;;;;23.50;99906.00;;;;2048400;28;20273;-69
2023/07/03 03:03:15;;;;;;;6.53;3.07;;;;;23.50;99905.00;;;;2063538;28;20215;-69
2023/07/03 03:04:16;;;;;;;6.37;2.77;;;;;23.50;99902.00;;;;2062539;28;20230;-69
2023/07/03 03:05:16;;;;;;;6.00;2.50;;;;;23.40;99899.00;;;;2063421;28;20225;-69
2023/07/03 03:06:17;;;;;;;7.43;3.00;;;;;23.40;99908.00;;;;2067694;28;20210;-69
2023/07/03 03:07:17;;;;;;;8.10;3.37;;;;;23.50;99896.00;;;;2051396;28;20328;-69
2023/07/03 03:08:18;;;;;;;6.53;2.90;;;;;23.50;99900.00;;;;2056522;28;20228;-69
2023/07/03 03:09:18;;;;;;;4.10;2.80;;;;;23.50;99902.00;;;;2059689;28;21233;-69
2023/07/03 03:10:19;;;;;;;6.07;2.63;;;;;23.50;99905.00;;;;2056591;28;20863;-69
2023/07/03 03:11:19;;;;;;;8.23;3.10;;;;;23.50;99895.00;;;;2067700;28;20213;-69
2023/07/03 03:12:19;;;;;;;6.40;3.07;;;;;23.50;99906.00;;;;2053475;28;20254;-69
2023/07/03 03:13:20;;;;;;;8.53;3.00;;;;;23.50;99901.00;;;;2053912;28;20289;-69
2023/07/03 03:14:20;;;;;;;5.60;2.73;;;;;23.50;99907.00;;;;2061464;28;20215;-69
2023/07/03 03:15:20;;;;;;;9.70;3.40;;;;;23.50;99894.00;;;;2058241;28;20215;-69
2023/07/03 03:16:21;;;;;;;7.20;3.00;;;;;23.50;99901.00;;;;2066605;28;20289;-69
2023/07/03 03:17:21;;;;;;;8.30;2.87;;;;;23.40;99898.00;;;;2052220;28;20226;-69
2023/07/03 03:18:21;;;;;;;8.20;2.93;;;;;23.50;99897.00;;;;2053701;28;20234;-69
2023/07/03 03:19:22;;;;;;;8.90;3.50;;;;;23.50;99895.00;;;;2068656;28;20210;-69
2023/07/03 03:20:22;;;;;;;6.83;2.83;;;;;23.40;99892.00;;;;2058052;28;20218;-69
2023/07/03 03:21:22;;;;;;;7.23;3.23;;;;;23.50;99892.00;;;;2060792;28;20242;-69
2023/07/03 03:22:23;;;;;;;7.00;2.93;;;;;23.50;99897.00;;;;2050944;28;20230;-69
2023/07/03 03:23:23;;;;;;;6.57;2.93;;;;;23.40;99892.00;;;;2063161;28;20223;-69
2023/07/03 03:24:23;;;;;;;5.60;2.50;;;;;23.40;99890.00;;;;2062713;28;20241;-69
2023/07/03 03:25:24;;;;;;;5.80;2.87;;;;;23.40;99890.00;;;;2060777;28;20706;-69
2023/07/03 03:26:24;;;;;;;6.70;3.30;;;;;23.40;99881.00;;;;2064456;28;20233;-69
2023/07/03 03:27:25;;;;;;;5.10;2.53;;;;;23.40;99883.00;;;;2057588;28;20624;-69
2023/07/03 03:28:25;;;;;;;9.60;2.93;;;;;23.40;99888.00;;;;2061869;28;20818;-69
2023/07/03 03:29:25;;;;;;;8.20;2.67;;;;;23.40;99885.00;;;;2064465;28;20709;-69
2023/07/03 03:30:26;;;;;;;8.47;3.20;;;;;23.40;99886.00;;;;2062745;28;20702;-69
2023/07/03 03:31:26;;;;;;;8.47;3.00;;;;;23.40;99891.00;;;;2055383;28;20215;-69
2023/07/03 03:32:27;;;;;;;5.50;2.77;;;;;23.40;99890.00;;;;2058655;28;20232;-69
2023/07/03 03:33:27;;;;;;;6.23;2.60;;;;;23.40;99888.00;;;;2062741;28;20202;-69
2023/07/03 03:34:27;;;;;;;9.00;3.20;;;;;23.40;99901.00;;;;2056077;28;20238;-69
2023/07/03 03:35:28;;;;;;;6.47;3.20;;;;;23.40;99903.00;;;;2059492;28;20214;-69
2023/07/03 03:36:28;;;;;;;8.50;3.87;;;;;23.40;99895.00;;;;2057982;28;20215;-69
2023/07/03 03:37:28;;;;;;;6.17;2.63;;;;;23.40;99891.00;;;;2058098;28;20230;-69
2023/07/03 03:38:29;;;;;;;7.93;2.73;;;;;23.40;99890.00;;;;2065132;28;20576;-69
2023/07/03 03:39:29;;;;;;;8.53;3.03;;;;;23.40;99900.00;;;;2061569;28;20705;-69
2023/07/03 03:40:29;;;;;;;7.20;2.60;;;;;23.40;99899.00;;;;2063436;28;20721;-69
2023/07/03 03:41:30;;;;;;;5.50;2.60;;;;;23.40;99895.00;;;;2062707;28;20207;-69
2023/07/03 03:42:30;;;;;;;10.50;2.77;;;;;23.40;99893.00;;;;2053361;28;20333;-69
2023/07/03 03:43:30;;;;;;;9.63;3.10;;;;;23.40;99897.00;;;;2063593;28;20211;-69
2023/07/03 03:44:31;;;;;;;7.53;3.03;;;;;23.40;99903.00;;;;2062892;28;20211;-69
2023/07/03 03:45:31;;;;;;;7.43;2.87;;;;;23.40;99900.00;;;;2061926;28;20214;-69
2023/07/03 03:46:31;;;;;;;8.70;2.90;;;;;23.40;99886.00;;;;2058431;28;20206;-69
2023/07/03 03:47:32;;;;;;;8.40;2.70;;;;;23.40;99892.00;;;;2051509;28;20218;-69
2023/07/03 03:48:32;;;;;;;6.10;3.27;;;;;23.40;99889.00;;;;2064411;28;20272;-69
2023/07/03 03:49:33;;;;;;;9.20;3.03;;;;;23.40;99890.00;;;;2062164;28;20219;-69
2023/07/03 03:50:33;;;;;;;10.43;3.40;;;;;23.40;99889.00;;;;2066966;28;20266;-69
2023/07/03 03:51:33;;;;;;;7.10;2.93;;;;;23.40;99900.00;;;;2058008;28;20224;-69
2023/07/03 03:52:34;;;;;;;7.63;2.50;;;;;23.40;99897.00;;;;2051699;28;20216;-69
2023/07/03 03:53:34;;;;;;;8.20;2.70;;;;;23.40;99899.00;;;;2068744;28;20207;-69
2023/07/03 03:54:34;;;;;;;7.30;2.77;;;;;23.40;99905.00;;;;2060814;28;20204;-69
2023/07/03 03:55:35;;;;;;;5.93;2.80;;;;;23.40;99899.00;;;;2059148;28;20293;-69
2023/07/03 03:56:35;;;;;;;7.73;2.80;;;;;23.40;99888.00;;;;2065508;28;20239;-69
2023/07/03 03:57:35;;;;;;;6.10;2.67;;;;;23.40;99897.00;;;;2053969;28;20216;-69
2023/07/03 03:58:36;;;;;;;8.23;2.90;;;;;23.40;99899.00;;;;2063033;28;20214;-69
2023/07/03 03:59:36;;;;;;;6.40;3.20;;;;;23.40;99892.00;;;;2061038;28;20243;-69
2023/07/03 04:00:36;;;;;;;6.73;2.63;;;;;23.40;99898.00;;;;2056203;28;20210;-69
2023/07/03 04:01:37;;;;;;;10.70;3.77;;;;;23.40;99896.00;;;;2063961;28;20219;-69
2023/07/03 04:02:37;;;;;;;10.40;4.17;;;;;23.40;99900.00;;;;2056633;28;20250;-69
2023/07/03 04:03:37;;;;;;;5.70;2.80;;;;;23.40;99900.00;;;;2068219;28;20237;-69
2023/07/03 04:04:38;;;;;;;5.77;2.30;;;;;23.40;99892.00;;;;2060718;28;21733;-69
2023/07/03 04:05:39;;;;;;;8.27;3.03;;;;;23.40;99896.00;;;;2057132;28;20246;-69
2023/07/03 04:06:40;;;;;;;6.93;2.75;;;;;23.40;99897.00;;;;2054279;28;20218;-69
2023/07/03 04:07:40;;;;;;;6.00;2.73;;;;;23.40;99893.00;;;;2045738;28;20235;-69
2023/07/03 04:08:40;;;;;;;4.97;2.93;;;;;23.40;99897.00;;;;2059305;28;20251;-69
2023/07/03 04:09:41;;;;;;;6.50;2.90;;;;;23.40;99898.00;;;;2063286;28;20274;-69
2023/07/03 04:10:44;;;;;;;7.73;3.47;;;;;23.40;99900.00;;;;2058376;28;20570;-69
2023/07/03 04:11:44;;;;;;;7.05;2.60;;;;;23.40;99898.00;;;;2060210;28;20856;-69
2023/07/03 04:12:44;;;;;;;6.13;2.90;;;;;23.40;99902.00;;;;2050184;28;20223;-69
2023/07/03 04:13:45;;;;;;;7.50;3.10;;;;;23.40;99906.00;;;;2061017;28;20266;-69
2023/07/03 04:14:45;;;;;;;7.80;2.80;;;;;23.40;99901.00;;;;2063623;28;20239;-69
2023/07/03 04:15:51;;;;;;;9.13;3.27;;;;;23.40;99905.00;;;;2065348;28;20221;-69
2023/07/03 04:16:51;;;;;;;9.35;2.70;;;;;23.40;99904.00;;;;2053312;28;20224;-69
2023/07/03 04:17:51;;;;;;;7.07;2.77;;;;;23.40;99894.00;;;;2041428;28;20433;-69
2023/07/03 04:18:52;;;;;;;7.83;3.17;;;;;23.40;99898.00;;;;2057636;28;20310;-69
2023/07/03 04:19:52;;;;;;;8.70;3.60;;;;;23.40;99898.00;;;;2060429;28;20216;-69
2023/07/03 04:20:52;;;;;;;5.60;3.00;;;;;23.40;99897.00;;;;2059748;28;20240;-69
2023/07/03 04:21:53;;;;;;;6.60;2.70;;;;;23.40;99908.00;;;;2060065;28;20223;-69
2023/07/03 04:22:53;;;;;;;6.17;2.97;;;;;23.40;99898.00;;;;2053438;28;20230;-69
2023/07/03 04:23:53;;;;;;;10.10;3.10;;;;;23.40;99899.00;;;;2067977;28;20214;-69
2023/07/03 04:24:54;;;;;;;7.33;3.20;;;;;23.40;99902.00;;;;2065231;28;20790;-69
2023/07/03 04:25:54;;;;;;;6.60;3.10;;;;;23.40;99905.00;;;;2058791;28;20713;-69
2023/07/03 04:26:54;;;;;;;7.57;3.13;;;;;23.40;99901.00;;;;2053499;28;20592;-69
2023/07/03 04:27:55;;;;;;;9.37;2.90;;;;;23.40;99904.00;;;;2054262;28;20676;-69
2023/07/03 04:28:55;;;;;;;13.03;3.97;;;;;23.40;99902.00;;;;2065371;28;20611;-69
2023/07/03 04:29:56;;;;;;;8.47;3.23;;;;;23.40;99899.00;;;;2056926;28;20603;-69
2023/07/03 04:30:56;;;;;;;7.70;3.00;;;;;23.40;99899.00;;;;2063960;28;20643;-69
2023/07/03 04:31:56;;;;;;;7.23;3.27;;;;;23.40;99902.00;;;;2055211;28;20536;-69
2023/07/03 04:32:57;;;;;;;8.67;3.10;;;;;23.40;99900.00;;;;2061056;28;20216;-69
2023/07/03 04:33:57;;;;;;;7.10;2.70;;;;;23.40;99903.00;;;;2059379;28;20239;-69
2023/07/03 04:35:00;;;;;;;9.90;2.57;;;;;23.40;99894.00;;;;2061120;28;20208;-69
2023/07/03 04:36:00;;;;;;;7.25;2.92;;;;;23.40;99908.00;;;;2058927;28;20219;-69
2023/07/03 04:37:03;;;;;;;8.53;3.10;;;;;23.40;99900.00;;;;2057328;28;20206;-69
2023/07/03 04:38:04;;;;;;;9.57;3.33;;;;;23.40;99902.00;;;;2059979;28;20235;-69
2023/07/03 04:39:07;;;;;;;6.50;2.90;;;;;23.40;99909.00;;;;2064002;28;20948;-69
2023/07/03 04:40:08;;;;;;;5.03;2.40;;;;;23.40;99910.00;;;;2064461;28;20352;-69
2023/07/03 04:41:09;;;;;;;7.40;2.70;;;;;23.40;99905.00;;;;2060789;28;20663;-69
2023/07/03 04:42:13;;;;;;;8.47;3.17;;;;;23.40;99901.00;;;;2046569;28;20227;-69
2023/07/03 04:43:15;;;;;;;12.32;3.42;;;;;23.40;99897.00;;;;2053884;28;20296;-69
2023/07/03 04:44:16;;;;;;;7.97;3.00;;;;;23.40;99907.00;;;;2055118;28;20211;-69
2023/07/03 04:45:16;;;;;;;7.60;2.93;;;;;23.40;99889.00;;;;2069835;28;20206;-69
2023/07/03 04:46:25;;;;;;;7.63;3.50;;;;;23.40;99900.00;;;;2053764;28;20282;-69
2023/07/03 04:47:25;;;;;;;9.88;2.95;;;;;23.40;99896.00;;;;2030779;28;20224;-69
2023/07/03 04:48:26;;;;;;;9.90;3.60;;;;;23.40;99898.00;;;;2047382;28;20220;-69
2023/07/03 04:49:26;;;;;;;7.37;3.00;;;;;23.40;99903.00;;;;2053447;28;20222;-69
2023/07/03 04:50:26;;;;;;;6.80;2.77;;;;;23.40;99904.00;;;;2067006;28;20301;-69
2023/07/03 04:51:30;;;;;;;10.60;3.40;;;;;23.40;99906.00;;;;2058065;28;20762;-69
2023/07/03 04:52:30;;;;;;;7.18;3.20;;;;;23.40;99905.00;;;;2047034;28;21026;-69
2023/07/03 04:53:38;;;;;;;6.43;2.97;;;;;23.40;99903.00;;;;2057028;28;20229;-69
2023/07/03 04:54:39;;;;;;;8.13;3.00;;;;;23.40;99902.00;;;;2059647;28;20216;-69
2023/07/03 04:55:39;;;;;;;9.70;3.10;;;;;23.40;99897.00;;;;2059094;28;20210;-69
2023/07/03 04:56:39;;;;;;;6.33;2.43;;;;;23.40;99906.00;;;;2061632;28;20206;-69
2023/07/03 04:57:42;;;;;;;8.60;3.33;;;;;23.40;99902.00;;;;2052236;28;20718;-69
2023/07/03 04:58:42;;;;;;;6.65;2.78;;;;;23.40;99913.00;;;;2060386;28;20207;-69
2023/07/03 04:59:43;;;;;;;13.20;3.97;;;;;23.40;99908.00;;;;2060872;28;20203;-69
2023/07/03 05:00:43;;;;;;;12.27;3.95;;;;;23.40;99910.00;;;;2060404;28;20302;-69
2023/07/03 05:01:44;;;;;;;9.70;3.80;;;;;23.40;99904.00;;;;2064695;28;20231;-69
2023/07/03 05:02:45;;;;;;;8.13;3.57;;;;;23.40;99907.00;;;;2055508;28;20894;-69
2023/07/03 05:03:45;;;;;;;9.27;3.50;;;;;23.40;99900.00;;;;2068160;28;20218;-69
2023/07/03 05:04:45;;;;;;;7.63;3.07;;;;;23.40;99897.00;;;;2064548;28;20215;-69
2023/07/03 05:05:46;;;;;;;8.40;3.30;;;;;23.40;99910.00;;;;2063307;28;20223;-69
2023/07/03 05:06:47;;;;;;;9.80;3.50;;;;;23.40;99902.00;;;;2065506;28;20243;-69